sensor_id;sensor_type;location;lat;lon;timestamp;temperature;humidity
20648;DHT22;10483;44.646;10.924;2022-07-23T00:00:20;31.00;84.20
20648;DHT22;10483;44.646;10.924;2022-07-23T00:02:47;31.00;84.30
20648;DHT22;10483;44.646;10.924;2022-07-23T00:05:14;31.00;84.40
20648;DHT22;10483;44.646;10.924;2022-07-23T00:07:41;31.00;84.60
20648;DHT22;10483;44.646;10.924;2022-07-23T00:10:08;30.90;84.90
20648;DHT22;10483;44.646;10.924;2022-07-23T00:12:35;30.90;85.00
20648;DHT22;10483;44.646;10.924;2022-07-23T00:15:03;30.90;85.40
20648;DHT22;10483;44.646;10.924;2022-07-23T00:17:30;30.90;85.60
20648;DHT22;10483;44.646;10.924;2022-07-23T00:19:56;30.80;85.60
20648;DHT22;10483;44.646;10.924;2022-07-23T00:22:23;30.80;85.70
20648;DHT22;10483;44.646;10.924;2022-07-23T00:24:50;30.80;85.80
20648;DHT22;10483;44.646;10.924;2022-07-23T00:27:17;30.80;85.80
20648;DHT22;10483;44.646;10.924;2022-07-23T00:29:43;30.80;85.90
20648;DHT22;10483;44.646;10.924;2022-07-23T00:32:10;30.80;85.90
20648;DHT22;10483;44.646;10.924;2022-07-23T00:34:36;30.80;86.10
20648;DHT22;10483;44.646;10.924;2022-07-23T00:37:03;30.80;86.40
20648;DHT22;10483;44.646;10.924;2022-07-23T00:39:30;30.70;86.30
20648;DHT22;10483;44.646;10.924;2022-07-23T00:41:57;30.70;86.50
20648;DHT22;10483;44.646;10.924;2022-07-23T00:44:25;30.70;86.70
20648;DHT22;10483;44.646;10.924;2022-07-23T00:46:56;30.60;86.70
20648;DHT22;10483;44.646;10.924;2022-07-23T00:49:26;30.60;86.80
20648;DHT22;10483;44.646;10.924;2022-07-23T00:51:53;30.60;86.80
20648;DHT22;10483;44.646;10.924;2022-07-23T00:54:22;30.50;86.40
20648;DHT22;10483;44.646;10.924;2022-07-23T00:56:49;30.50;86.20
20648;DHT22;10483;44.646;10.924;2022-07-23T00:59:16;30.50;86.20
20648;DHT22;10483;44.646;10.924;2022-07-23T01:01:43;30.50;86.20
20648;DHT22;10483;44.646;10.924;2022-07-23T01:04:11;30.50;86.50
20648;DHT22;10483;44.646;10.924;2022-07-23T01:06:38;30.50;85.10
20648;DHT22;10483;44.646;10.924;2022-07-23T01:09:07;30.50;84.90
20648;DHT22;10483;44.646;10.924;2022-07-23T01:11:35;30.50;84.70
20648;DHT22;10483;44.646;10.924;2022-07-23T01:14:10;30.40;84.50
20648;DHT22;10483;44.646;10.924;2022-07-23T01:16:36;30.40;84.30
20648;DHT22;10483;44.646;10.924;2022-07-23T01:19:03;30.40;83.80
20648;DHT22;10483;44.646;10.924;2022-07-23T01:21:36;30.30;83.50
20648;DHT22;10483;44.646;10.924;2022-07-23T01:24:03;30.30;83.10
20648;DHT22;10483;44.646;10.924;2022-07-23T01:26:30;30.20;82.80
20648;DHT22;10483;44.646;10.924;2022-07-23T01:28:57;30.20;82.60
20648;DHT22;10483;44.646;10.924;2022-07-23T01:31:23;30.20;82.60
20648;DHT22;10483;44.646;10.924;2022-07-23T01:33:50;30.20;82.70
20648;DHT22;10483;44.646;10.924;2022-07-23T01:36:16;30.10;82.80
20648;DHT22;10483;44.646;10.924;2022-07-23T01:38:43;30.10;82.80
20648;DHT22;10483;44.646;10.924;2022-07-23T01:41:10;30.10;82.80
20648;DHT22;10483;44.646;10.924;2022-07-23T01:43:37;30.10;83.00
20648;DHT22;10483;44.646;10.924;2022-07-23T01:46:03;30.10;83.20
20648;DHT22;10483;44.646;10.924;2022-07-23T01:48:30;30.10;83.30
20648;DHT22;10483;44.646;10.924;2022-07-23T01:50:57;30.10;83.30
20648;DHT22;10483;44.646;10.924;2022-07-23T01:53:23;30.00;83.20
20648;DHT22;10483;44.646;10.924;2022-07-23T01:55:50;30.00;83.10
20648;DHT22;10483;44.646;10.924;2022-07-23T01:58:16;30.00;83.10
20648;DHT22;10483;44.646;10.924;2022-07-23T02:00:43;30.00;83.10
20648;DHT22;10483;44.646;10.924;2022-07-23T02:03:10;30.00;83.20
20648;DHT22;10483;44.646;10.924;2022-07-23T02:05:36;30.00;83.30
20648;DHT22;10483;44.646;10.924;2022-07-23T02:08:03;29.90;83.40
20648;DHT22;10483;44.646;10.924;2022-07-23T02:10:29;30.00;83.60
20648;DHT22;10483;44.646;10.924;2022-07-23T02:12:56;29.90;83.80
20648;DHT22;10483;44.646;10.924;2022-07-23T02:15:23;29.90;83.80
20648;DHT22;10483;44.646;10.924;2022-07-23T02:17:49;29.90;83.90
20648;DHT22;10483;44.646;10.924;2022-07-23T02:20:16;29.90;84.00
20648;DHT22;10483;44.646;10.924;2022-07-23T02:22:43;29.90;84.30
20648;DHT22;10483;44.646;10.924;2022-07-23T02:25:10;29.90;84.90
20648;DHT22;10483;44.646;10.924;2022-07-23T02:27:37;29.90;85.20
20648;DHT22;10483;44.646;10.924;2022-07-23T02:30:04;29.80;84.30
20648;DHT22;10483;44.646;10.924;2022-07-23T02:32:31;29.80;83.70
20648;DHT22;10483;44.646;10.924;2022-07-23T02:34:58;29.80;83.00
20648;DHT22;10483;44.646;10.924;2022-07-23T02:37:24;29.70;82.40
20648;DHT22;10483;44.646;10.924;2022-07-23T02:39:51;29.70;82.60
20648;DHT22;10483;44.646;10.924;2022-07-23T02:42:18;29.70;82.10
20648;DHT22;10483;44.646;10.924;2022-07-23T02:44:44;29.60;82.20
20648;DHT22;10483;44.646;10.924;2022-07-23T02:47:11;29.60;82.10
20648;DHT22;10483;44.646;10.924;2022-07-23T02:49:37;29.50;81.80
20648;DHT22;10483;44.646;10.924;2022-07-23T02:52:04;29.50;81.70
20648;DHT22;10483;44.646;10.924;2022-07-23T02:54:31;29.40;81.30
20648;DHT22;10483;44.646;10.924;2022-07-23T02:56:57;29.40;80.60
20648;DHT22;10483;44.646;10.924;2022-07-23T02:59:24;29.40;80.70
20648;DHT22;10483;44.646;10.924;2022-07-23T03:01:50;29.40;81.40
20648;DHT22;10483;44.646;10.924;2022-07-23T03:04:17;29.30;80.80
20648;DHT22;10483;44.646;10.924;2022-07-23T03:06:44;29.30;80.70
20648;DHT22;10483;44.646;10.924;2022-07-23T03:09:10;29.30;80.60
20648;DHT22;10483;44.646;10.924;2022-07-23T03:11:37;29.30;80.50
20648;DHT22;10483;44.646;10.924;2022-07-23T03:14:03;29.20;80.70
20648;DHT22;10483;44.646;10.924;2022-07-23T03:16:30;29.20;80.90
20648;DHT22;10483;44.646;10.924;2022-07-23T03:18:57;29.20;81.40
20648;DHT22;10483;44.646;10.924;2022-07-23T03:21:23;29.10;82.60
20648;DHT22;10483;44.646;10.924;2022-07-23T03:23:50;29.10;82.40
20648;DHT22;10483;44.646;10.924;2022-07-23T03:26:16;29.10;83.20
20648;DHT22;10483;44.646;10.924;2022-07-23T03:28:43;29.10;82.00
20648;DHT22;10483;44.646;10.924;2022-07-23T03:31:10;29.00;81.90
20648;DHT22;10483;44.646;10.924;2022-07-23T03:33:36;29.00;81.60
20648;DHT22;10483;44.646;10.924;2022-07-23T03:36:03;29.00;82.10
20648;DHT22;10483;44.646;10.924;2022-07-23T03:38:30;28.90;82.00
20648;DHT22;10483;44.646;10.924;2022-07-23T03:40:56;28.90;82.00
20648;DHT22;10483;44.646;10.924;2022-07-23T03:43:23;28.80;81.80
20648;DHT22;10483;44.646;10.924;2022-07-23T03:45:51;28.80;81.80
20648;DHT22;10483;44.646;10.924;2022-07-23T03:48:18;28.80;81.90
20648;DHT22;10483;44.646;10.924;2022-07-23T03:50:45;28.80;82.00
20648;DHT22;10483;44.646;10.924;2022-07-23T03:53:11;28.80;81.90
20648;DHT22;10483;44.646;10.924;2022-07-23T03:55:38;28.60;82.30
20648;DHT22;10483;44.646;10.924;2022-07-23T03:58:05;28.60;82.70
20648;DHT22;10483;44.646;10.924;2022-07-23T04:00:31;28.50;83.00
20648;DHT22;10483;44.646;10.924;2022-07-23T04:02:58;28.40;83.10
20648;DHT22;10483;44.646;10.924;2022-07-23T04:05:24;28.20;83.40
20648;DHT22;10483;44.646;10.924;2022-07-23T04:07:51;28.30;83.80
20648;DHT22;10483;44.646;10.924;2022-07-23T04:10:18;28.10;84.80
20648;DHT22;10483;44.646;10.924;2022-07-23T04:12:44;27.90;85.60
20648;DHT22;10483;44.646;10.924;2022-07-23T04:15:11;27.90;86.20
20648;DHT22;10483;44.646;10.924;2022-07-23T04:17:38;27.80;86.80
20648;DHT22;10483;44.646;10.924;2022-07-23T04:20:05;27.70;86.40
20648;DHT22;10483;44.646;10.924;2022-07-23T04:22:32;27.60;86.20
20648;DHT22;10483;44.646;10.924;2022-07-23T04:24:58;27.50;86.20
20648;DHT22;10483;44.646;10.924;2022-07-23T04:27:25;27.60;86.20
20648;DHT22;10483;44.646;10.924;2022-07-23T04:29:51;27.70;86.10
20648;DHT22;10483;44.646;10.924;2022-07-23T04:32:18;27.70;85.90
20648;DHT22;10483;44.646;10.924;2022-07-23T04:34:45;27.80;85.30
20648;DHT22;10483;44.646;10.924;2022-07-23T04:37:11;27.80;84.10
20648;DHT22;10483;44.646;10.924;2022-07-23T04:39:38;27.70;83.30
20648;DHT22;10483;44.646;10.924;2022-07-23T04:42:04;27.70;83.30
20648;DHT22;10483;44.646;10.924;2022-07-23T04:44:31;27.50;83.30
20648;DHT22;10483;44.646;10.924;2022-07-23T04:47:04;27.60;83.40
20648;DHT22;10483;44.646;10.924;2022-07-23T04:49:36;27.60;83.50
20648;DHT22;10483;44.646;10.924;2022-07-23T04:52:03;27.60;83.10
20648;DHT22;10483;44.646;10.924;2022-07-23T04:54:30;27.70;83.20
20648;DHT22;10483;44.646;10.924;2022-07-23T04:56:57;27.80;82.90
20648;DHT22;10483;44.646;10.924;2022-07-23T04:59:23;27.80;82.30
20648;DHT22;10483;44.646;10.924;2022-07-23T05:01:50;27.80;82.20
20648;DHT22;10483;44.646;10.924;2022-07-23T05:04:16;27.90;81.70
20648;DHT22;10483;44.646;10.924;2022-07-23T05:06:43;27.80;81.70
20648;DHT22;10483;44.646;10.924;2022-07-23T05:09:09;27.70;82.00
20648;DHT22;10483;44.646;10.924;2022-07-23T05:11:36;27.80;82.00
20648;DHT22;10483;44.646;10.924;2022-07-23T05:14:03;27.70;81.80
20648;DHT22;10483;44.646;10.924;2022-07-23T05:16:29;27.80;81.90
20648;DHT22;10483;44.646;10.924;2022-07-23T05:18:56;27.80;81.80
20648;DHT22;10483;44.646;10.924;2022-07-23T05:21:22;27.80;81.90
20648;DHT22;10483;44.646;10.924;2022-07-23T05:23:49;27.80;82.00
20648;DHT22;10483;44.646;10.924;2022-07-23T05:26:16;27.80;82.10
20648;DHT22;10483;44.646;10.924;2022-07-23T05:28:42;27.90;82.90
20648;DHT22;10483;44.646;10.924;2022-07-23T05:31:09;28.00;82.30
20648;DHT22;10483;44.646;10.924;2022-07-23T05:33:36;28.00;83.00
20648;DHT22;10483;44.646;10.924;2022-07-23T05:36:03;28.10;82.80
20648;DHT22;10483;44.646;10.924;2022-07-23T05:38:31;28.10;83.20
20648;DHT22;10483;44.646;10.924;2022-07-23T05:40:59;28.10;83.40
20648;DHT22;10483;44.646;10.924;2022-07-23T05:43:26;28.20;83.30
20648;DHT22;10483;44.646;10.924;2022-07-23T05:45:53;28.30;83.60
20648;DHT22;10483;44.646;10.924;2022-07-23T05:48:20;28.30;83.70
20648;DHT22;10483;44.646;10.924;2022-07-23T05:50:47;28.40;83.80
20648;DHT22;10483;44.646;10.924;2022-07-23T05:53:14;28.50;83.90
20648;DHT22;10483;44.646;10.924;2022-07-23T05:55:40;28.50;84.00
20648;DHT22;10483;44.646;10.924;2022-07-23T05:58:07;28.60;84.00
20648;DHT22;10483;44.646;10.924;2022-07-23T06:00:35;28.60;83.80
20648;DHT22;10483;44.646;10.924;2022-07-23T06:03:01;28.60;83.20
20648;DHT22;10483;44.646;10.924;2022-07-23T06:05:28;28.70;83.30
20648;DHT22;10483;44.646;10.924;2022-07-23T06:07:55;28.70;82.80
20648;DHT22;10483;44.646;10.924;2022-07-23T06:10:21;28.80;82.60
20648;DHT22;10483;44.646;10.924;2022-07-23T06:12:48;28.90;83.10
20648;DHT22;10483;44.646;10.924;2022-07-23T06:15:14;29.00;82.80
20648;DHT22;10483;44.646;10.924;2022-07-23T06:17:41;29.10;83.80
20648;DHT22;10483;44.646;10.924;2022-07-23T06:20:09;29.10;82.80
20648;DHT22;10483;44.646;10.924;2022-07-23T06:22:36;29.30;82.10
20648;DHT22;10483;44.646;10.924;2022-07-23T06:25:03;29.30;81.40
20648;DHT22;10483;44.646;10.924;2022-07-23T06:27:30;29.30;81.70
20648;DHT22;10483;44.646;10.924;2022-07-23T06:29:57;29.40;80.70
20648;DHT22;10483;44.646;10.924;2022-07-23T06:32:23;29.40;80.40
20648;DHT22;10483;44.646;10.924;2022-07-23T06:34:50;29.50;81.10
20648;DHT22;10483;44.646;10.924;2022-07-23T06:37:16;29.50;80.10
20648;DHT22;10483;44.646;10.924;2022-07-23T06:39:43;29.60;81.20
20648;DHT22;10483;44.646;10.924;2022-07-23T06:42:10;29.60;80.30
20648;DHT22;10483;44.646;10.924;2022-07-23T06:44:37;29.60;80.40
20648;DHT22;10483;44.646;10.924;2022-07-23T06:47:04;29.70;81.30
20648;DHT22;10483;44.646;10.924;2022-07-23T06:49:31;29.80;83.10
20648;DHT22;10483;44.646;10.924;2022-07-23T06:51:57;29.80;79.90
20648;DHT22;10483;44.646;10.924;2022-07-23T06:54:24;29.80;79.70
20648;DHT22;10483;44.646;10.924;2022-07-23T06:56:50;29.90;79.10
20648;DHT22;10483;44.646;10.924;2022-07-23T06:59:17;30.00;79.30
20648;DHT22;10483;44.646;10.924;2022-07-23T07:01:44;30.00;78.60
20648;DHT22;10483;44.646;10.924;2022-07-23T07:04:10;30.10;78.60
20648;DHT22;10483;44.646;10.924;2022-07-23T07:06:37;30.10;78.40
20648;DHT22;10483;44.646;10.924;2022-07-23T07:09:04;30.10;78.30
20648;DHT22;10483;44.646;10.924;2022-07-23T07:11:30;30.20;78.40
20648;DHT22;10483;44.646;10.924;2022-07-23T07:13:57;30.30;79.10
20648;DHT22;10483;44.646;10.924;2022-07-23T07:16:24;30.30;79.30
20648;DHT22;10483;44.646;10.924;2022-07-23T07:18:50;30.30;78.80
20648;DHT22;10483;44.646;10.924;2022-07-23T07:21:17;30.30;78.70
20648;DHT22;10483;44.646;10.924;2022-07-23T07:23:43;30.30;78.70
20648;DHT22;10483;44.646;10.924;2022-07-23T07:26:10;30.30;79.40
20648;DHT22;10483;44.646;10.924;2022-07-23T07:28:37;30.40;79.40
20648;DHT22;10483;44.646;10.924;2022-07-23T07:31:03;30.40;80.00
20648;DHT22;10483;44.646;10.924;2022-07-23T07:33:30;30.40;79.80
20648;DHT22;10483;44.646;10.924;2022-07-23T07:35:57;30.50;83.90
20648;DHT22;10483;44.646;10.924;2022-07-23T07:38:24;30.50;84.10
20648;DHT22;10483;44.646;10.924;2022-07-23T07:40:51;30.50;82.80
20648;DHT22;10483;44.646;10.924;2022-07-23T07:43:17;30.50;80.90
20648;DHT22;10483;44.646;10.924;2022-07-23T07:45:44;30.60;80.50
20648;DHT22;10483;44.646;10.924;2022-07-23T07:48:11;30.60;79.30
20648;DHT22;10483;44.646;10.924;2022-07-23T07:50:37;30.70;82.80
20648;DHT22;10483;44.646;10.924;2022-07-23T07:53:04;30.70;83.30
20648;DHT22;10483;44.646;10.924;2022-07-23T07:55:31;30.70;83.40
20648;DHT22;10483;44.646;10.924;2022-07-23T07:57:57;30.80;82.40
20648;DHT22;10483;44.646;10.924;2022-07-23T08:00:24;30.80;84.80
20648;DHT22;10483;44.646;10.924;2022-07-23T08:02:52;30.80;85.70
20648;DHT22;10483;44.646;10.924;2022-07-23T08:05:22;30.90;85.70
20648;DHT22;10483;44.646;10.924;2022-07-23T08:07:49;30.90;81.70
20648;DHT22;10483;44.646;10.924;2022-07-23T08:10:16;30.90;83.60
20648;DHT22;10483;44.646;10.924;2022-07-23T08:12:47;31.00;81.30
20648;DHT22;10483;44.646;10.924;2022-07-23T08:15:16;31.10;83.00
20648;DHT22;10483;44.646;10.924;2022-07-23T08:17:45;31.10;80.40
20648;DHT22;10483;44.646;10.924;2022-07-23T08:20:14;31.20;78.10
20648;DHT22;10483;44.646;10.924;2022-07-23T08:25:20;31.40;82.10
20648;DHT22;10483;44.646;10.924;2022-07-23T08:27:48;31.40;76.60
20648;DHT22;10483;44.646;10.924;2022-07-23T08:30:15;31.50;74.00
20648;DHT22;10483;44.646;10.924;2022-07-23T08:32:49;31.60;73.90
20648;DHT22;10483;44.646;10.924;2022-07-23T08:35:17;31.70;71.70
20648;DHT22;10483;44.646;10.924;2022-07-23T08:37:44;31.70;76.10
20648;DHT22;10483;44.646;10.924;2022-07-23T08:40:11;31.80;75.20
20648;DHT22;10483;44.646;10.924;2022-07-23T08:42:39;31.80;71.90
20648;DHT22;10483;44.646;10.924;2022-07-23T08:45:07;31.90;71.70
20648;DHT22;10483;44.646;10.924;2022-07-23T08:47:37;31.90;73.50
20648;DHT22;10483;44.646;10.924;2022-07-23T08:50:04;31.90;74.20
20648;DHT22;10483;44.646;10.924;2022-07-23T08:52:34;32.00;72.90
20648;DHT22;10483;44.646;10.924;2022-07-23T08:55:03;32.10;72.40
20648;DHT22;10483;44.646;10.924;2022-07-23T08:57:30;32.10;71.80
20648;DHT22;10483;44.646;10.924;2022-07-23T08:59:56;32.10;78.80
20648;DHT22;10483;44.646;10.924;2022-07-23T09:02:23;32.10;72.50
20648;DHT22;10483;44.646;10.924;2022-07-23T09:04:50;32.20;72.40
20648;DHT22;10483;44.646;10.924;2022-07-23T09:07:17;32.20;78.50
20648;DHT22;10483;44.646;10.924;2022-07-23T09:09:44;32.30;73.40
20648;DHT22;10483;44.646;10.924;2022-07-23T09:12:11;32.30;77.30
20648;DHT22;10483;44.646;10.924;2022-07-23T09:14:41;32.30;72.80
20648;DHT22;10483;44.646;10.924;2022-07-23T09:17:11;32.40;71.80
20648;DHT22;10483;44.646;10.924;2022-07-23T09:19:39;32.40;76.60
20648;DHT22;10483;44.646;10.924;2022-07-23T09:22:24;32.40;78.60
20648;DHT22;10483;44.646;10.924;2022-07-23T09:25:12;32.50;73.70
20648;DHT22;10483;44.646;10.924;2022-07-23T09:27:53;32.60;73.00
20648;DHT22;10483;44.646;10.924;2022-07-23T09:30:22;32.70;73.00
20648;DHT22;10483;44.646;10.924;2022-07-23T09:38:07;32.70;79.80
20648;DHT22;10483;44.646;10.924;2022-07-23T09:40:33;32.80;73.80
20648;DHT22;10483;44.646;10.924;2022-07-23T09:43:00;32.90;79.20
20648;DHT22;10483;44.646;10.924;2022-07-23T09:45:26;33.00;77.20
20648;DHT22;10483;44.646;10.924;2022-07-23T09:50:27;33.20;78.10
20648;DHT22;10483;44.646;10.924;2022-07-23T09:52:54;33.30;78.60
20648;DHT22;10483;44.646;10.924;2022-07-23T09:55:27;33.30;73.90
20648;DHT22;10483;44.646;10.924;2022-07-23T09:57:51;33.50;71.90
20648;DHT22;10483;44.646;10.924;2022-07-23T10:00:22;33.70;75.70
20648;DHT22;10483;44.646;10.924;2022-07-23T10:02:49;33.80;72.80
20648;DHT22;10483;44.646;10.924;2022-07-23T10:05:19;34.00;72.50
20648;DHT22;10483;44.646;10.924;2022-07-23T10:07:46;34.20;76.60
20648;DHT22;10483;44.646;10.924;2022-07-23T10:10:15;34.40;72.40
20648;DHT22;10483;44.646;10.924;2022-07-23T10:12:44;34.60;74.10
20648;DHT22;10483;44.646;10.924;2022-07-23T10:15:13;35.00;69.60
20648;DHT22;10483;44.646;10.924;2022-07-23T10:17:40;35.30;68.10
20648;DHT22;10483;44.646;10.924;2022-07-23T10:20:07;35.80;68.90
20648;DHT22;10483;44.646;10.924;2022-07-23T10:22:38;36.10;68.70
20648;DHT22;10483;44.646;10.924;2022-07-23T10:25:32;36.50;69.80
20648;DHT22;10483;44.646;10.924;2022-07-23T10:28:11;36.80;67.30
20648;DHT22;10483;44.646;10.924;2022-07-23T10:30:40;37.60;65.10
20648;DHT22;10483;44.646;10.924;2022-07-23T10:33:21;38.20;64.60
20648;DHT22;10483;44.646;10.924;2022-07-23T10:35:54;38.80;64.40
20648;DHT22;10483;44.646;10.924;2022-07-23T10:38:27;39.20;67.20
20648;DHT22;10483;44.646;10.924;2022-07-23T10:40:57;39.60;63.60
20648;DHT22;10483;44.646;10.924;2022-07-23T10:43:24;39.90;62.80
20648;DHT22;10483;44.646;10.924;2022-07-23T10:45:52;40.10;64.20
20648;DHT22;10483;44.646;10.924;2022-07-23T10:48:23;40.00;66.30
20648;DHT22;10483;44.646;10.924;2022-07-23T10:51:13;40.20;62.30
20648;DHT22;10483;44.646;10.924;2022-07-23T10:53:57;41.30;59.30
20648;DHT22;10483;44.646;10.924;2022-07-23T10:59:04;43.10;58.80
20648;DHT22;10483;44.646;10.924;2022-07-23T11:01:35;43.70;57.70
20648;DHT22;10483;44.646;10.924;2022-07-23T11:04:03;44.30;57.60
20648;DHT22;10483;44.646;10.924;2022-07-23T11:07:12;45.10;55.70
20648;DHT22;10483;44.646;10.924;2022-07-23T11:09:27;44.70;57.50
20648;DHT22;10483;44.646;10.924;2022-07-23T11:14:59;42.70;54.80
20648;DHT22;10483;44.646;10.924;2022-07-23T11:17:28;41.70;56.00
20648;DHT22;10483;44.646;10.924;2022-07-23T11:22:37;40.10;58.00
20648;DHT22;10483;44.646;10.924;2022-07-23T11:25:05;39.50;62.00
20648;DHT22;10483;44.646;10.924;2022-07-23T11:27:38;38.90;61.80
20648;DHT22;10483;44.646;10.924;2022-07-23T11:30:07;38.30;62.90
20648;DHT22;10483;44.646;10.924;2022-07-23T11:32:37;37.90;66.60
20648;DHT22;10483;44.646;10.924;2022-07-23T11:37:44;37.30;65.80
20648;DHT22;10483;44.646;10.924;2022-07-23T11:40:13;37.20;68.60
20648;DHT22;10483;44.646;10.924;2022-07-23T11:45:14;36.90;63.00
20648;DHT22;10483;44.646;10.924;2022-07-23T11:47:41;36.70;62.40
20648;DHT22;10483;44.646;10.924;2022-07-23T11:50:07;36.60;62.60
20648;DHT22;10483;44.646;10.924;2022-07-23T11:52:34;36.50;61.50
20648;DHT22;10483;44.646;10.924;2022-07-23T11:55:04;36.40;63.30
20648;DHT22;10483;44.646;10.924;2022-07-23T11:57:35;36.30;63.60
20648;DHT22;10483;44.646;10.924;2022-07-23T12:00:09;36.10;71.30
20648;DHT22;10483;44.646;10.924;2022-07-23T12:02:40;36.00;66.30
20648;DHT22;10483;44.646;10.924;2022-07-23T12:05:09;35.90;70.00
20648;DHT22;10483;44.646;10.924;2022-07-23T12:07:38;35.80;68.70
20648;DHT22;10483;44.646;10.924;2022-07-23T12:10:14;35.70;70.60
20648;DHT22;10483;44.646;10.924;2022-07-23T12:12:46;35.60;70.80
20648;DHT22;10483;44.646;10.924;2022-07-23T12:15:13;35.60;67.00
20648;DHT22;10483;44.646;10.924;2022-07-23T12:17:43;35.50;72.70
20648;DHT22;10483;44.646;10.924;2022-07-23T12:20:13;35.30;73.30
20648;DHT22;10483;44.646;10.924;2022-07-23T12:22:44;35.30;71.20
20648;DHT22;10483;44.646;10.924;2022-07-23T12:25:14;35.10;74.80
20648;DHT22;10483;44.646;10.924;2022-07-23T12:27:41;35.10;70.40
20648;DHT22;10483;44.646;10.924;2022-07-23T12:30:18;35.10;68.50
20648;DHT22;10483;44.646;10.924;2022-07-23T12:32:46;35.20;67.90
20648;DHT22;10483;44.646;10.924;2022-07-23T12:35:13;35.10;69.80
20648;DHT22;10483;44.646;10.924;2022-07-23T12:37:42;35.10;74.30
20648;DHT22;10483;44.646;10.924;2022-07-23T12:40:20;35.00;71.60
20648;DHT22;10483;44.646;10.924;2022-07-23T12:42:50;34.90;70.40
20648;DHT22;10483;44.646;10.924;2022-07-23T12:45:18;34.90;75.80
20648;DHT22;10483;44.646;10.924;2022-07-23T12:47:56;34.80;75.80
20648;DHT22;10483;44.646;10.924;2022-07-23T12:50:55;34.70;73.80
20648;DHT22;10483;44.646;10.924;2022-07-23T12:53:25;34.70;74.10
20648;DHT22;10483;44.646;10.924;2022-07-23T12:56:10;34.70;75.70
20648;DHT22;10483;44.646;10.924;2022-07-23T12:58:58;34.70;68.80
20648;DHT22;10483;44.646;10.924;2022-07-23T13:01:30;34.90;71.40
20648;DHT22;10483;44.646;10.924;2022-07-23T13:04:17;34.80;74.80
20648;DHT22;10483;44.646;10.924;2022-07-23T13:06:47;34.80;69.10
20648;DHT22;10483;44.646;10.924;2022-07-23T13:09:16;34.80;71.60
20648;DHT22;10483;44.646;10.924;2022-07-23T13:11:45;34.90;66.60
20648;DHT22;10483;44.646;10.924;2022-07-23T13:14:12;35.10;68.10
20648;DHT22;10483;44.646;10.924;2022-07-23T13:16:40;35.10;70.90
20648;DHT22;10483;44.646;10.924;2022-07-23T13:19:07;35.00;72.90
20648;DHT22;10483;44.646;10.924;2022-07-23T13:21:34;34.90;74.90
20648;DHT22;10483;44.646;10.924;2022-07-23T13:24:00;34.80;72.30
20648;DHT22;10483;44.646;10.924;2022-07-23T13:26:27;34.80;70.90
20648;DHT22;10483;44.646;10.924;2022-07-23T13:28:54;34.70;75.00
20648;DHT22;10483;44.646;10.924;2022-07-23T13:31:21;34.60;76.60
20648;DHT22;10483;44.646;10.924;2022-07-23T13:33:47;34.50;74.40
20648;DHT22;10483;44.646;10.924;2022-07-23T13:36:14;34.50;74.10
20648;DHT22;10483;44.646;10.924;2022-07-23T13:38:41;34.50;74.70
20648;DHT22;10483;44.646;10.924;2022-07-23T13:41:07;34.50;70.60
20648;DHT22;10483;44.646;10.924;2022-07-23T13:43:34;34.60;72.40
20648;DHT22;10483;44.646;10.924;2022-07-23T13:46:01;34.50;73.20
20648;DHT22;10483;44.646;10.924;2022-07-23T13:48:27;34.60;70.70
20648;DHT22;10483;44.646;10.924;2022-07-23T13:50:55;34.50;75.60
20648;DHT22;10483;44.646;10.924;2022-07-23T13:53:23;34.30;77.20
20648;DHT22;10483;44.646;10.924;2022-07-23T13:55:52;34.50;71.10
20648;DHT22;10483;44.646;10.924;2022-07-23T13:58:21;34.60;68.50
20648;DHT22;10483;44.646;10.924;2022-07-23T14:00:50;34.60;71.70
20648;DHT22;10483;44.646;10.924;2022-07-23T14:03:18;34.60;71.80
20648;DHT22;10483;44.646;10.924;2022-07-23T14:05:46;34.60;75.10
20648;DHT22;10483;44.646;10.924;2022-07-23T14:08:12;34.50;76.20
20648;DHT22;10483;44.646;10.924;2022-07-23T14:10:39;34.40;76.80
20648;DHT22;10483;44.646;10.924;2022-07-23T14:13:06;34.30;78.10
20648;DHT22;10483;44.646;10.924;2022-07-23T14:15:32;34.30;77.40
20648;DHT22;10483;44.646;10.924;2022-07-23T14:17:59;34.30;73.70
20648;DHT22;10483;44.646;10.924;2022-07-23T14:20:26;34.30;78.10
20648;DHT22;10483;44.646;10.924;2022-07-23T14:22:53;34.20;78.60
20648;DHT22;10483;44.646;10.924;2022-07-23T14:25:21;34.20;70.90
20648;DHT22;10483;44.646;10.924;2022-07-23T14:27:48;34.30;80.00
20648;DHT22;10483;44.646;10.924;2022-07-23T14:30:15;34.30;77.40
20648;DHT22;10483;44.646;10.924;2022-07-23T14:32:41;34.30;71.50
20648;DHT22;10483;44.646;10.924;2022-07-23T14:35:09;34.30;77.60
20648;DHT22;10483;44.646;10.924;2022-07-23T14:37:35;34.40;71.60
20648;DHT22;10483;44.646;10.924;2022-07-23T14:40:03;34.50;75.70
20648;DHT22;10483;44.646;10.924;2022-07-23T14:42:29;34.50;70.80
20648;DHT22;10483;44.646;10.924;2022-07-23T14:44:56;34.50;71.30
20648;DHT22;10483;44.646;10.924;2022-07-23T14:47:23;34.50;73.90
20648;DHT22;10483;44.646;10.924;2022-07-23T14:49:49;34.50;69.40
20648;DHT22;10483;44.646;10.924;2022-07-23T14:52:16;34.50;75.20
20648;DHT22;10483;44.646;10.924;2022-07-23T14:54:43;34.40;76.00
20648;DHT22;10483;44.646;10.924;2022-07-23T14:57:09;34.30;77.40
20648;DHT22;10483;44.646;10.924;2022-07-23T14:59:36;34.30;74.40
20648;DHT22;10483;44.646;10.924;2022-07-23T15:02:03;34.40;68.50
20648;DHT22;10483;44.646;10.924;2022-07-23T15:04:29;34.50;74.60
20648;DHT22;10483;44.646;10.924;2022-07-23T15:06:56;34.50;71.80
20648;DHT22;10483;44.646;10.924;2022-07-23T15:09:23;34.50;75.30
20648;DHT22;10483;44.646;10.924;2022-07-23T15:11:49;34.40;74.90
20648;DHT22;10483;44.646;10.924;2022-07-23T15:14:16;34.40;76.70
20648;DHT22;10483;44.646;10.924;2022-07-23T15:16:43;34.50;76.30
20648;DHT22;10483;44.646;10.924;2022-07-23T15:19:10;34.40;73.50
20648;DHT22;10483;44.646;10.924;2022-07-23T15:21:36;34.50;76.80
20648;DHT22;10483;44.646;10.924;2022-07-23T15:24:03;34.50;71.60
20648;DHT22;10483;44.646;10.924;2022-07-23T15:26:30;34.50;68.80
20648;DHT22;10483;44.646;10.924;2022-07-23T15:28:57;34.50;73.20
20648;DHT22;10483;44.646;10.924;2022-07-23T15:31:28;34.50;80.20
20648;DHT22;10483;44.646;10.924;2022-07-23T15:33:55;34.50;74.50
20648;DHT22;10483;44.646;10.924;2022-07-23T15:36:22;34.50;76.60
20648;DHT22;10483;44.646;10.924;2022-07-23T15:38:48;34.60;71.60
20648;DHT22;10483;44.646;10.924;2022-07-23T15:41:15;34.50;70.10
20648;DHT22;10483;44.646;10.924;2022-07-23T15:43:42;34.60;71.20